sensor_id;sensor_type;location;lat;lon;timestamp;pressure;altitude;pressure_sealevel;temperature;humidity
52469;BME280;38381;53.688;10.776;2023-02-15T00:03:22;102751.97;;;1.77;93.27
52469;BME280;38381;53.688;10.776;2023-02-15T00:08:22;102748.19;;;1.72;93.46
52469;BME280;38381;53.688;10.776;2023-02-15T00:13:23;102737.69;;;1.69;94.25
52469;BME280;38381;53.688;10.776;2023-02-15T00:18:23;102724.78;;;1.68;93.75
52469;BME280;38381;53.688;10.776;2023-02-15T00:23:24;102714.91;;;1.60;94.57
52469;BME280;38381;53.688;10.776;2023-02-15T00:28:24;102717.66;;;1.52;95.98
52469;BME280;38381;53.688;10.776;2023-02-15T00:33:24;102715.22;;;1.53;95.80
52469;BME280;38381;53.688;10.776;2023-02-15T00:38:27;102709.47;;;1.56;95.72
52469;BME280;38381;53.688;10.776;2023-02-15T00:43:29;102714.09;;;1.61;95.62
52469;BME280;38381;53.688;10.776;2023-02-15T00:48:30;102718.13;;;1.58;95.92
52469;BME280;38381;53.688;10.776;2023-02-15T00:53:30;102705.34;;;1.58;96.04
52469;BME280;38381;53.688;10.776;2023-02-15T00:58:31;102700.53;;;1.51;95.92
52469;BME280;38381;53.688;10.776;2023-02-15T01:03:31;102699.53;;;1.49;96.07
52469;BME280;38381;53.688;10.776;2023-02-15T01:08:32;102700.31;;;1.48;95.48
52469;BME280;38381;53.688;10.776;2023-02-15T01:13:33;102695.28;;;1.37;95.40
52469;BME280;38381;53.688;10.776;2023-02-15T01:18:34;102702.97;;;1.37;95.20
52469;BME280;38381;53.688;10.776;2023-02-15T01:23:35;102698.94;;;1.29;94.02
52469;BME280;38381;53.688;10.776;2023-02-15T01:28:35;102688.34;;;1.13;92.97
52469;BME280;38381;53.688;10.776;2023-02-15T01:33:36;102678.63;;;0.97;91.61
52469;BME280;38381;53.688;10.776;2023-02-15T01:38:36;102677.88;;;0.88;91.54
52469;BME280;38381;53.688;10.776;2023-02-15T01:43:42;102672.22;;;0.80;90.51
52469;BME280;38381;53.688;10.776;2023-02-15T01:48:48;102671.50;;;0.71;90.54
52469;BME280;38381;53.688;10.776;2023-02-15T01:53:57;102663.84;;;0.71;91.57
52469;BME280;38381;53.688;10.776;2023-02-15T01:59:04;102651.91;;;0.59;91.95
52469;BME280;38381;53.688;10.776;2023-02-15T02:04:25;102658.44;;;0.56;93.68
52469;BME280;38381;53.688;10.776;2023-02-15T02:09:30;102660.13;;;0.55;95.18
52469;BME280;38381;53.688;10.776;2023-02-15T02:14:30;102655.53;;;0.51;97.39
52469;BME280;38381;53.688;10.776;2023-02-15T02:26:03;102637.22;;;0.57;97.45
52469;BME280;38381;53.688;10.776;2023-02-15T02:31:22;102632.25;;;0.58;97.51
52469;BME280;38381;53.688;10.776;2023-02-15T02:36:49;102616.31;;;0.39;99.26
52469;BME280;38381;53.688;10.776;2023-02-15T02:47:29;102591.41;;;0.36;100.00
52469;BME280;38381;53.688;10.776;2023-02-15T02:52:41;102599.66;;;0.44;100.00
52469;BME280;38381;53.688;10.776;2023-02-15T02:57:49;102594.56;;;0.44;100.00
52469;BME280;38381;53.688;10.776;2023-02-15T03:02:58;102585.75;;;0.40;100.00
52469;BME280;38381;53.688;10.776;2023-02-15T03:08:07;102589.72;;;0.47;100.00
52469;BME280;38381;53.688;10.776;2023-02-15T03:13:09;102581.13;;;0.47;100.00
52469;BME280;38381;53.688;10.776;2023-02-15T03:18:10;102582.94;;;0.48;100.00
52469;BME280;38381;53.688;10.776;2023-02-15T03:23:15;102579.19;;;0.32;100.00
52469;BME280;38381;53.688;10.776;2023-02-15T03:28:20;102565.31;;;0.29;100.00
52469;BME280;38381;53.688;10.776;2023-02-15T03:33:23;102564.31;;;0.27;99.92
52469;BME280;38381;53.688;10.776;2023-02-15T03:38:36;102561.03;;;0.17;100.00
52469;BME280;38381;53.688;10.776;2023-02-15T03:48:57;102556.13;;;0.09;99.65
52469;BME280;38381;53.688;10.776;2023-02-15T03:59:03;102538.31;;;-0.02;100.00
52469;BME280;38381;53.688;10.776;2023-02-15T04:04:35;102524.72;;;-0.12;100.00
52469;BME280;38381;53.688;10.776;2023-02-15T04:09:36;102524.72;;;-0.12;100.00
52469;BME280;38381;53.688;10.776;2023-02-15T04:14:55;102523.94;;;-0.11;100.00
52469;BME280;38381;53.688;10.776;2023-02-15T04:20:14;102524.38;;;0.05;100.00
52469;BME280;38381;53.688;10.776;2023-02-15T04:25:33;102533.28;;;0.10;100.00
52469;BME280;38381;53.688;10.776;2023-02-15T04:30:34;102523.34;;;0.03;99.81
52469;BME280;38381;53.688;10.776;2023-02-15T04:35:34;102528.59;;;0.05;100.00
52469;BME280;38381;53.688;10.776;2023-02-15T04:40:35;102529.53;;;-0.05;99.93
52469;BME280;38381;53.688;10.776;2023-02-15T04:45:35;102524.22;;;-0.08;99.96
52469;BME280;38381;53.688;10.776;2023-02-15T04:50:36;102515.22;;;-0.03;99.93
52469;BME280;38381;53.688;10.776;2023-02-15T04:55:36;102503.81;;;-0.08;100.00
52469;BME280;38381;53.688;10.776;2023-02-15T05:00:36;102511.00;;;-0.03;100.00
52469;BME280;38381;53.688;10.776;2023-02-15T05:05:37;102506.09;;;-0.11;100.00
52469;BME280;38381;53.688;10.776;2023-02-15T05:10:37;102512.34;;;-0.08;100.00
52469;BME280;38381;53.688;10.776;2023-02-15T05:15:38;102508.84;;;-0.20;100.00
52469;BME280;38381;53.688;10.776;2023-02-15T05:20:38;102510.97;;;-0.14;100.00
52469;BME280;38381;53.688;10.776;2023-02-15T05:25:39;102507.41;;;-0.16;100.00
52469;BME280;38381;53.688;10.776;2023-02-15T05:31:11;102503.84;;;-0.18;100.00
52469;BME280;38381;53.688;10.776;2023-02-15T05:36:12;102496.16;;;-0.08;100.00
52469;BME280;38381;53.688;10.776;2023-02-15T05:41:12;102490.56;;;-0.14;100.00
52469;BME280;38381;53.688;10.776;2023-02-15T05:46:13;102496.38;;;-0.05;100.00
52469;BME280;38381;53.688;10.776;2023-02-15T05:51:13;102498.16;;;-0.26;100.00
52469;BME280;38381;53.688;10.776;2023-02-15T05:56:15;102487.34;;;-0.34;100.00
52469;BME280;38381;53.688;10.776;2023-02-15T06:01:18;102477.84;;;-0.47;100.00
52469;BME280;38381;53.688;10.776;2023-02-15T06:06:18;102476.72;;;-0.50;100.00
52469;BME280;38381;53.688;10.776;2023-02-15T06:11:19;102467.78;;;-0.45;100.00
52469;BME280;38381;53.688;10.776;2023-02-15T06:16:19;102470.88;;;-0.49;100.00
52469;BME280;38381;53.688;10.776;2023-02-15T06:21:19;102475.91;;;-0.39;100.00
52469;BME280;38381;53.688;10.776;2023-02-15T06:26:20;102485.75;;;-0.22;100.00
52469;BME280;38381;53.688;10.776;2023-02-15T06:31:20;102486.56;;;-0.11;100.00
52469;BME280;38381;53.688;10.776;2023-02-15T06:36:21;102492.88;;;-0.17;100.00
52469;BME280;38381;53.688;10.776;2023-02-15T06:41:21;102480.63;;;-0.44;100.00
52469;BME280;38381;53.688;10.776;2023-02-15T06:46:22;102490.84;;;-0.22;100.00
52469;BME280;38381;53.688;10.776;2023-02-15T06:51:22;102489.94;;;-0.44;100.00
52469;BME280;38381;53.688;10.776;2023-02-15T06:56:23;102481.63;;;-0.64;100.00
52469;BME280;38381;53.688;10.776;2023-02-15T07:01:23;102480.13;;;-0.72;100.00
52469;BME280;38381;53.688;10.776;2023-02-15T07:06:23;102477.63;;;-0.82;100.00
52469;BME280;38381;53.688;10.776;2023-02-15T07:11:24;102467.81;;;-0.88;100.00
52469;BME280;38381;53.688;10.776;2023-02-15T07:16:43;102466.69;;;-1.02;100.00
52469;BME280;38381;53.688;10.776;2023-02-15T07:21:43;102459.34;;;-1.09;100.00
52469;BME280;38381;53.688;10.776;2023-02-15T07:26:45;102466.31;;;-0.96;100.00
52469;BME280;38381;53.688;10.776;2023-02-15T07:31:46;102461.94;;;-0.54;100.00
52469;BME280;38381;53.688;10.776;2023-02-15T07:36:46;102466.09;;;-0.67;100.00
52469;BME280;38381;53.688;10.776;2023-02-15T07:41:47;102454.78;;;-0.48;100.00
52469;BME280;38381;53.688;10.776;2023-02-15T07:46:47;102456.91;;;-0.65;100.00
52469;BME280;38381;53.688;10.776;2023-02-15T07:51:48;102455.00;;;-0.67;100.00
52469;BME280;38381;53.688;10.776;2023-02-15T07:56:48;102459.56;;;-0.63;100.00
52469;BME280;38381;53.688;10.776;2023-02-15T08:01:49;102446.22;;;-0.71;100.00
52469;BME280;38381;53.688;10.776;2023-02-15T08:06:52;102439.63;;;-0.79;100.00
52469;BME280;38381;53.688;10.776;2023-02-15T08:11:52;102426.16;;;-0.78;100.00
52469;BME280;38381;53.688;10.776;2023-02-15T08:16:54;102424.78;;;-0.95;100.00
52469;BME280;38381;53.688;10.776;2023-02-15T08:22:03;102417.84;;;-0.75;100.00
52469;BME280;38381;53.688;10.776;2023-02-15T08:27:05;102421.59;;;-0.60;100.00
52469;BME280;38381;53.688;10.776;2023-02-15T08:32:09;102416.19;;;-0.75;100.00
52469;BME280;38381;53.688;10.776;2023-02-15T08:37:09;102417.63;;;-0.56;100.00
52469;BME280;38381;53.688;10.776;2023-02-15T08:42:10;102415.28;;;-0.43;100.00
52469;BME280;38381;53.688;10.776;2023-02-15T08:47:10;102406.38;;;-0.48;100.00
52469;BME280;38381;53.688;10.776;2023-02-15T08:52:11;102415.84;;;-0.13;100.00
52469;BME280;38381;53.688;10.776;2023-02-15T08:57:11;102413.88;;;-0.06;100.00
52469;BME280;38381;53.688;10.776;2023-02-15T09:02:12;102398.31;;;-0.21;100.00
52469;BME280;38381;53.688;10.776;2023-02-15T09:07:12;102394.09;;;-0.20;100.00
52469;BME280;38381;53.688;10.776;2023-02-15T09:12:12;102393.44;;;-0.17;100.00
52469;BME280;38381;53.688;10.776;2023-02-15T09:17:13;102396.28;;;-0.25;100.00
52469;BME280;38381;53.688;10.776;2023-02-15T09:22:13;102390.81;;;-0.29;100.00
52469;BME280;38381;53.688;10.776;2023-02-15T09:27:14;102391.31;;;0.11;100.00
52469;BME280;38381;53.688;10.776;2023-02-15T09:32:14;102395.25;;;-0.05;100.00
52469;BME280;38381;53.688;10.776;2023-02-15T09:37:15;102386.03;;;-0.14;100.00
52469;BME280;38381;53.688;10.776;2023-02-15T09:43:03;102389.97;;;0.04;100.00
52469;BME280;38381;53.688;10.776;2023-02-15T09:53:17;102389.97;;;0.04;100.00
52469;BME280;38381;53.688;10.776;2023-02-15T10:03:59;102383.00;;;0.13;100.00
52469;BME280;38381;53.688;10.776;2023-02-15T10:09:05;102384.47;;;0.33;100.00
52469;BME280;38381;53.688;10.776;2023-02-15T10:19:38;102367.41;;;0.56;100.00
52469;BME280;38381;53.688;10.776;2023-02-15T10:30:03;102374.63;;;0.62;100.00
52469;BME280;38381;53.688;10.776;2023-02-15T10:35:18;102364.41;;;0.62;100.00
52469;BME280;38381;53.688;10.776;2023-02-15T10:40:27;102370.97;;;0.70;100.00
52469;BME280;38381;53.688;10.776;2023-02-15T10:50:57;102373.34;;;1.27;100.00
52469;BME280;38381;53.688;10.776;2023-02-15T11:06:34;102352.50;;;0.97;100.00
52469;BME280;38381;53.688;10.776;2023-02-15T11:11:37;102345.25;;;1.15;100.00
52469;BME280;38381;53.688;10.776;2023-02-15T11:16:47;102342.50;;;1.00;100.00
52469;BME280;38381;53.688;10.776;2023-02-15T11:21:53;102341.97;;;0.93;100.00
52469;BME280;38381;53.688;10.776;2023-02-15T11:32:19;102317.28;;;1.42;100.00
52469;BME280;38381;53.688;10.776;2023-02-15T11:37:26;102315.13;;;1.23;100.00
52469;BME280;38381;53.688;10.776;2023-02-15T11:42:29;102312.59;;;1.48;100.00
52469;BME280;38381;53.688;10.776;2023-02-15T11:47:31;102309.41;;;1.64;100.00
52469;BME280;38381;53.688;10.776;2023-02-15T11:52:32;102311.38;;;1.68;100.00
52469;BME280;38381;53.688;10.776;2023-02-15T11:57:38;102300.41;;;1.83;100.00
52469;BME280;38381;53.688;10.776;2023-02-15T12:02:44;102296.78;;;1.54;100.00
52469;BME280;38381;53.688;10.776;2023-02-15T12:07:54;102292.16;;;1.61;100.00
52469;BME280;38381;53.688;10.776;2023-02-15T12:13:10;102290.78;;;1.92;100.00
52469;BME280;38381;53.688;10.776;2023-02-15T12:18:41;102282.09;;;1.90;100.00
52469;BME280;38381;53.688;10.776;2023-02-15T12:23:49;102275.75;;;2.10;100.00
52469;BME280;38381;53.688;10.776;2023-02-15T12:28:51;102279.38;;;2.27;100.00
52469;BME280;38381;53.688;10.776;2023-02-15T12:33:56;102269.53;;;2.33;100.00
52469;BME280;38381;53.688;10.776;2023-02-15T12:44:18;102270.56;;;2.76;100.00
52469;BME280;38381;53.688;10.776;2023-02-15T12:49:20;102257.16;;;2.80;100.00
52469;BME280;38381;53.688;10.776;2023-02-15T12:54:41;102235.94;;;2.96;100.00
52469;BME280;38381;53.688;10.776;2023-02-15T12:59:49;102236.31;;;3.02;100.00
52469;BME280;38381;53.688;10.776;2023-02-15T13:04:50;102229.91;;;2.81;100.00
52469;BME280;38381;53.688;10.776;2023-02-15T13:09:51;102233.84;;;2.76;100.00
52469;BME280;38381;53.688;10.776;2023-02-15T13:14:53;102220.47;;;2.67;100.00
52469;BME280;38381;53.688;10.776;2023-02-15T13:19:57;102215.69;;;2.86;100.00
52469;BME280;38381;53.688;10.776;2023-02-15T13:25:03;102218.47;;;2.76;100.00
52469;BME280;38381;53.688;10.776;2023-02-15T13:30:38;102213.72;;;2.82;100.00
52469;BME280;38381;53.688;10.776;2023-02-15T13:35:46;102203.69;;;2.72;100.00
52469;BME280;38381;53.688;10.776;2023-02-15T13:40:55;102209.56;;;2.84;100.00
52469;BME280;38381;53.688;10.776;2023-02-15T13:46:22;102207.47;;;3.20;100.00
52469;BME280;38381;53.688;10.776;2023-02-15T13:51:35;102196.25;;;2.90;100.00
52469;BME280;38381;53.688;10.776;2023-02-15T14:12:34;102178.78;;;2.69;100.00
52469;BME280;38381;53.688;10.776;2023-02-15T14:23:23;102187.63;;;3.02;100.00
52469;BME280;38381;53.688;10.776;2023-02-15T14:34:30;102182.88;;;2.80;100.00
52469;BME280;38381;53.688;10.776;2023-02-15T14:39:41;102189.78;;;2.81;100.00
52469;BME280;38381;53.688;10.776;2023-02-15T14:45:17;102190.13;;;2.73;100.00
52469;BME280;38381;53.688;10.776;2023-02-15T14:55:37;102172.69;;;2.67;100.00
52469;BME280;38381;53.688;10.776;2023-02-15T15:00:39;102178.50;;;2.65;100.00
52469;BME280;38381;53.688;10.776;2023-02-15T15:05:50;102170.00;;;2.79;100.00
52469;BME280;38381;53.688;10.776;2023-02-15T15:10:51;102178.06;;;2.72;100.00
52469;BME280;38381;53.688;10.776;2023-02-15T15:15:52;102174.75;;;2.73;100.00
52469;BME280;38381;53.688;10.776;2023-02-15T15:20:53;102165.03;;;2.82;100.00
52469;BME280;38381;53.688;10.776;2023-02-15T15:26:23;102175.53;;;2.72;100.00
52469;BME280;38381;53.688;10.776;2023-02-15T15:31:38;102159.88;;;2.95;100.00
52469;BME280;38381;53.688;10.776;2023-02-15T15:41:59;102153.16;;;2.97;100.00
52469;BME280;38381;53.688;10.776;2023-02-15T15:52:21;102161.47;;;2.93;100.00
52469;BME280;38381;53.688;10.776;2023-02-15T16:02:31;102152.88;;;2.93;100.00
52469;BME280;38381;53.688;10.776;2023-02-15T16:07:31;102150.78;;;2.72;100.00
52469;BME280;38381;53.688;10.776;2023-02-15T16:12:37;102144.84;;;2.58;100.00
52469;BME280;38381;53.688;10.776;2023-02-15T16:17:41;102147.69;;;2.63;100.00
52469;BME280;38381;53.688;10.776;2023-02-15T16:22:43;102138.75;;;2.56;100.00
52469;BME280;38381;53.688;10.776;2023-02-15T16:27:44;102138.88;;;2.73;100.00
52469;BME280;38381;53.688;10.776;2023-02-15T16:32:46;102139.63;;;2.57;100.00
52469;BME280;38381;53.688;10.776;2023-02-15T16:37:46;102141.56;;;2.61;100.00
52469;BME280;38381;53.688;10.776;2023-02-15T16:42:47;102137.97;;;2.72;100.00
52469;BME280;38381;53.688;10.776;2023-02-15T16:47:50;102144.09;;;2.33;100.00
52469;BME280;38381;53.688;10.776;2023-02-15T16:52:53;102132.13;;;2.32;100.00
52469;BME280;38381;53.688;10.776;2023-02-15T16:57:57;102123.06;;;2.24;100.00
52469;BME280;38381;53.688;10.776;2023-02-15T17:03:03;102127.16;;;2.35;100.00
52469;BME280;38381;53.688;10.776;2023-02-15T17:13:27;102119.22;;;2.30;100.00
52469;BME280;38381;53.688;10.776;2023-02-15T17:18:30;102116.16;;;2.36;100.00
52469;BME280;38381;53.688;10.776;2023-02-15T17:23:33;102112.19;;;1.99;100.00
52469;BME280;38381;53.688;10.776;2023-02-15T17:28:35;102111.00;;;1.81;100.00
52469;BME280;38381;53.688;10.776;2023-02-15T17:33:37;102104.69;;;1.76;100.00
52469;BME280;38381;53.688;10.776;2023-02-15T17:38:41;102088.56;;;1.64;100.00
52469;BME280;38381;53.688;10.776;2023-02-15T17:43:58;102090.38;;;1.65;100.00
52469;BME280;38381;53.688;10.776;2023-02-15T17:48:59;102088.31;;;1.72;100.00
52469;BME280;38381;53.688;10.776;2023-02-15T17:54:01;102083.75;;;1.55;100.00
52469;BME280;38381;53.688;10.776;2023-02-15T17:59:20;102083.47;;;1.64;100.00
52469;BME280;38381;53.688;10.776;2023-02-15T18:04:21;102083.19;;;1.72;100.00
52469;BME280;38381;53.688;10.776;2023-02-15T18:09:41;102079.81;;;1.73;100.00
52469;BME280;38381;53.688;10.776;2023-02-15T18:15:00;102093.59;;;1.75;100.00
52469;BME280;38381;53.688;10.776;2023-02-15T18:20:03;102079.84;;;1.60;100.00
52469;BME280;38381;53.688;10.776;2023-02-15T18:25:15;102082.19;;;1.57;100.00
52469;BME280;38381;53.688;10.776;2023-02-15T18:30:18;102074.91;;;1.63;100.00
52469;BME280;38381;53.688;10.776;2023-02-15T18:35:21;102082.81;;;1.66;100.00
52469;BME280;38381;53.688;10.776;2023-02-15T18:40:25;102080.34;;;1.54;100.00
52469;BME280;38381;53.688;10.776;2023-02-15T18:45:27;102093.22;;;1.56;100.00
52469;BME280;38381;53.688;10.776;2023-02-15T18:50:34;102109.72;;;1.61;100.00
52469;BME280;38381;53.688;10.776;2023-02-15T18:55:35;102100.97;;;1.57;100.00
52469;BME280;38381;53.688;10.776;2023-02-15T19:00:36;102087.00;;;1.39;100.00
52469;BME280;38381;53.688;10.776;2023-02-15T19:05:36;102078.44;;;1.65;100.00
52469;BME280;38381;53.688;10.776;2023-02-15T19:10:37;102069.78;;;1.36;100.00
52469;BME280;38381;53.688;10.776;2023-02-15T19:15:37;102063.41;;;1.43;100.00
52469;BME280;38381;53.688;10.776;2023-02-15T19:20:41;102062.78;;;1.20;100.00
52469;BME280;38381;53.688;10.776;2023-02-15T19:25:42;102050.03;;;1.20;100.00
52469;BME280;38381;53.688;10.776;2023-02-15T19:30:43;102045.53;;;1.30;100.00
52469;BME280;38381;53.688;10.776;2023-02-15T19:35:45;102052.00;;;1.25;100.00
52469;BME280;38381;53.688;10.776;2023-02-15T19:40:47;102046.00;;;1.11;100.00
52469;BME280;38381;53.688;10.776;2023-02-15T19:45:48;102028.59;;;1.18;100.00
52469;BME280;38381;53.688;10.776;2023-02-15T19:50:51;102026.16;;;1.07;100.00
52469;BME280;38381;53.688;10.776;2023-02-15T19:55:52;102028.88;;;0.96;100.00
52469;BME280;38381;53.688;10.776;2023-02-15T20:00:52;102028.47;;;0.90;100.00
52469;BME280;38381;53.688;10.776;2023-02-15T20:05:53;102031.91;;;1.04;100.00
52469;BME280;38381;53.688;10.776;2023-02-15T20:10:56;102037.84;;;1.03;100.00
52469;BME280;38381;53.688;10.776;2023-02-15T20:15:57;102019.16;;;1.04;100.00
52469;BME280;38381;53.688;10.776;2023-02-15T20:21:00;102020.63;;;1.00;100.00
52469;BME280;38381;53.688;10.776;2023-02-15T20:26:13;102008.63;;;0.99;100.00
52469;BME280;38381;53.688;10.776;2023-02-15T20:31:18;102010.03;;;0.94;100.00
52469;BME280;38381;53.688;10.776;2023-02-15T20:36:20;102024.59;;;1.09;100.00
52469;BME280;38381;53.688;10.776;2023-02-15T20:41:21;102025.53;;;0.97;100.00
52469;BME280;38381;53.688;10.776;2023-02-15T20:46:39;102028.47;;;0.90;100.00
52469;BME280;38381;53.688;10.776;2023-02-15T20:51:39;102034.00;;;0.96;100.00
52469;BME280;38381;53.688;10.776;2023-02-15T20:56:41;102031.63;;;0.99;100.00
52469;BME280;38381;53.688;10.776;2023-02-15T21:01:42;102033.34;;;1.26;100.00
52469;BME280;38381;53.688;10.776;2023-02-15T21:06:42;102031.25;;;1.07;100.00
52469;BME280;38381;53.688;10.776;2023-02-15T21:11:46;102029.06;;;0.99;100.00
52469;BME280;38381;53.688;10.776;2023-02-15T21:16:49;102023.56;;;0.80;100.00
52469;BME280;38381;53.688;10.776;2023-02-15T21:21:51;102008.22;;;0.80;100.00
52469;BME280;38381;53.688;10.776;2023-02-15T21:26:53;102005.28;;;0.87;100.00
52469;BME280;38381;53.688;10.776;2023-02-15T21:31:54;102016.94;;;0.84;100.00
52469;BME280;38381;53.688;10.776;2023-02-15T21:36:57;102007.03;;;0.75;100.00
52469;BME280;38381;53.688;10.776;2023-02-15T21:41:58;102009.81;;;0.78;100.00
52469;BME280;38381;53.688;10.776;2023-02-15T21:47:24;102002.31;;;0.68;100.00
52469;BME280;38381;53.688;10.776;2023-02-15T21:52:43;101992.75;;;0.65;100.00
52469;BME280;38381;53.688;10.776;2023-02-15T21:57:44;101988.56;;;0.66;100.00
52469;BME280;38381;53.688;10.776;2023-02-15T22:02:46;101990.53;;;0.70;100.00
52469;BME280;38381;53.688;10.776;2023-02-15T22:07:47;101971.34;;;0.63;100.00
52469;BME280;38381;53.688;10.776;2023-02-15T22:12:48;101981.06;;;0.55;100.00
52469;BME280;38381;53.688;10.776;2023-02-15T22:17:50;101971.06;;;0.58;100.00
52469;BME280;38381;53.688;10.776;2023-02-15T22:22:52;101966.34;;;0.65;100.00
52469;BME280;38381;53.688;10.776;2023-02-15T22:27:53;101972.69;;;0.45;100.00
52469;BME280;38381;53.688;10.776;2023-02-15T22:32:55;101969.72;;;0.38;100.00
52469;BME280;38381;53.688;10.776;2023-02-15T22:37:56;101980.72;;;0.37;100.00
52469;BME280;38381;53.688;10.776;2023-02-15T22:43:00;101975.16;;;0.43;100.00
52469;BME280;38381;53.688;10.776;2023-02-15T22:48:01;101975.09;;;0.30;100.00
52469;BME280;38381;53.688;10.776;2023-02-15T22:53:02;101973.81;;;0.23;100.00
52469;BME280;38381;53.688;10.776;2023-02-15T22:58:03;101963.88;;;0.14;100.00
52469;BME280;38381;53.688;10.776;2023-02-15T23:03:15;101966.03;;;0.22;100.00
52469;BME280;38381;53.688;10.776;2023-02-15T23:08:16;101953.28;;;0.22;100.00
52469;BME280;38381;53.688;10.776;2023-02-15T23:13:23;101956.94;;;0.00;100.00
52469;BME280;38381;53.688;10.776;2023-02-15T23:23:37;101943.53;;;-0.09;100.00
52469;BME280;38381;53.688;10.776;2023-02-15T23:28:38;101938.72;;;-0.18;100.00
52469;BME280;38381;53.688;10.776;2023-02-15T23:33:39;101932.19;;;-0.26;100.00
52469;BME280;38381;53.688;10.776;2023-02-15T23:38:39;101937.97;;;-0.29;100.00
52469;BME280;38381;53.688;10.776;2023-02-15T23:43:42;101942.28;;;-0.28;100.00
52469;BME280;38381;53.688;10.776;2023-02-15T23:48:42;101934.78;;;-0.13;100.00
52469;BME280;38381;53.688;10.776;2023-02-15T23:53:43;101934.00;;;-0.37;100.00
52469;BME280;38381;53.688;10.776;2023-02-15T23:58:44;101929.00;;;-0.35;100.00
